CheckWX is a tool to help pilots better visualize weather data.  It is not intended as a substitute for an official pre-flight weather briefing.

04:34:34 UTC

EDHK METAR
Kiel-Holtenau Airport
Kiel, Germany
Current

13 hours ago

EDHK 231550Z 32008KT 290V350 9999 FEW043 26/17 Q1020
Observed
Jul-23 @ 15:50 UTC
Wind
  • 320° at 8 KTS
Visibility
10,000+ meters
Flight Rules
VFR
Cloud Levels
  • Few at 4,300' AGL
Temperature
26°C / 79°F
Dewpoint
17°C / 63°F
Humidity
58%
Altimeter
30.12" Hg
Pressure
1019.92 hPa
Previous

13 hours ago

EDHK 231520Z 31006KT 280V350 9999 FEW043 27/18 Q1020
Observed
Jul-23 @ 15:20 UTC
Wind
  • 310° at 6 KTS
Visibility
10,000+ meters
Flight Rules
VFR
Cloud Levels
  • Few at 4,300' AGL
Temperature
27°C / 81°F
Dewpoint
18°C / 64°F
Heat Index
28°C / 83°F
Humidity
58%
Altimeter
30.12" Hg
Pressure
1019.92 hPa
Previous

14 hours ago

EDHK 231450Z 31006KT 9999 FEW042 27/17 Q1020
Observed
Jul-23 @ 14:50 UTC
Wind
  • 310° at 6 KTS
Visibility
10,000+ meters
Flight Rules
VFR
Cloud Levels
  • Few at 4,200' AGL
Temperature
27°C / 81°F
Dewpoint
17°C / 63°F
Heat Index
28°C / 82°F
Humidity
54%
Altimeter
30.12" Hg
Pressure
1019.92 hPa